createdAt,value
2018-02-11T08:09:40.358Z,97103.75
2018-02-11T08:12:11.404Z,97110.72
2018-02-11T08:18:03.944Z,97100.11
2018-02-11T08:20:41.972Z,97103.43
2018-02-11T08:23:13.344Z,97102.91
2018-02-11T08:25:48.066Z,97098.22
2018-02-11T08:28:18.941Z,97100.52
2018-02-11T08:30:50.066Z,97098.56
2018-02-11T08:33:19.957Z,97097.66
2018-02-11T08:35:49.522Z,97091.27
2018-02-11T08:38:19.768Z,97092.20
2018-02-11T08:40:49.424Z,97100.27
2018-02-11T08:43:18.885Z,97096.08
2018-02-11T08:45:48.340Z,97097.66
2018-02-11T08:48:19.182Z,97087.45
2018-02-11T08:54:27.103Z,97089.23
2018-02-11T08:56:57.856Z,97086.58
2018-02-11T08:59:28.082Z,97082.67
2018-02-11T09:02:00.094Z,97073.50
2018-02-11T09:04:29.530Z,97076.19
2018-02-11T09:06:59.035Z,97075.05
2018-02-11T09:09:28.456Z,97078.52
2018-02-11T09:11:57.964Z,97070.76
2018-02-11T09:14:27.465Z,97072.70
2018-02-11T09:17:12.165Z,97075.52
2018-02-11T12:29:24.102Z,96823.75
2018-02-11T12:31:53.521Z,96829.47
2018-02-11T12:34:24.007Z,96819.63
2018-02-11T12:36:53.488Z,96817.25
2018-02-11T12:39:23.101Z,96821.50
2018-02-11T12:41:55.810Z,96812.45
2018-02-11T12:44:26.751Z,96812.03
2018-02-11T12:46:56.563Z,96799.59
2018-02-11T12:49:26.925Z,96801.25
2018-02-11T12:51:57.161Z,96803.19
2018-02-11T12:54:26.728Z,96790.39
2018-02-11T12:56:56.203Z,96792.84
2018-02-11T12:59:25.739Z,96793.66
2018-02-11T13:01:55.354Z,96789.20
2018-02-11T13:04:24.871Z,96787.77
2018-02-11T13:07:23.315Z,96778.67
2018-02-11T13:14:01.618Z,96766.41
2018-02-11T13:16:31.227Z,96766.38
2018-02-11T13:19:00.608Z,96767.39
2018-02-11T13:21:30.306Z,96765.75
2018-02-11T13:24:00.010Z,96758.29
2018-02-11T13:26:30.329Z,96753.57
2018-02-11T13:28:59.852Z,96752.09
2018-02-11T13:31:30.042Z,96758.04
2018-02-11T13:34:00.388Z,96752.66
2018-02-11T13:36:30.247Z,96753.28
2018-02-11T13:39:00.542Z,96747.80
2018-02-11T13:41:30.238Z,96748.78
2018-02-11T13:43:59.672Z,96744.08
2018-02-11T13:46:29.290Z,96742.16
2018-02-11T13:48:59.296Z,96739.77
2018-02-11T13:51:29.071Z,96732.38
2018-02-11T13:53:58.817Z,96735.42
2018-02-11T14:00:13.252Z,96731.96
2018-02-11T14:02:43.740Z,96728.14
2018-02-11T14:08:45.124Z,96719.09
2018-02-11T14:11:17.219Z,96718.77
2018-02-11T14:13:46.762Z,96721.27
